sensor_id;sensor_type;location;lat;lon;timestamp;P1;durP1;ratioP1;P2;durP2;ratioP2
16977;SDS011;8605;52.548;4.918;2023-04-25T00:02:17;0.57;;;0.57;;
16977;SDS011;8605;52.548;4.918;2023-04-25T00:07:38;0.80;;;0.80;;
16977;SDS011;8605;52.548;4.918;2023-04-25T00:12:44;1.60;;;1.00;;
16977;SDS011;8605;52.548;4.918;2023-04-25T00:17:47;0.40;;;0.40;;
16977;SDS011;8605;52.548;4.918;2023-04-25T00:22:50;0.77;;;0.70;;
16977;SDS011;8605;52.548;4.918;2023-04-25T00:27:55;3.30;;;0.90;;
16977;SDS011;8605;52.548;4.918;2023-04-25T00:33:14;0.85;;;0.85;;
16977;SDS011;8605;52.548;4.918;2023-04-25T00:38:17;9.30;;;1.20;;
16977;SDS011;8605;52.548;4.918;2023-04-25T00:43:22;0.80;;;0.70;;
16977;SDS011;8605;52.548;4.918;2023-04-25T00:48:24;0.55;;;0.55;;
16977;SDS011;8605;52.548;4.918;2023-04-25T00:53:28;0.77;;;0.77;;
16977;SDS011;8605;52.548;4.918;2023-04-25T00:58:50;2.10;;;0.93;;
16977;SDS011;8605;52.548;4.918;2023-04-25T01:03:58;0.70;;;0.70;;
16977;SDS011;8605;52.548;4.918;2023-04-25T01:09:01;0.20;;;0.20;;
16977;SDS011;8605;52.548;4.918;2023-04-25T01:14:06;0.70;;;0.70;;
16977;SDS011;8605;52.548;4.918;2023-04-25T01:19:10;0.30;;;0.30;;
16977;SDS011;8605;52.548;4.918;2023-04-25T01:24:16;0.30;;;0.30;;
16977;SDS011;8605;52.548;4.918;2023-04-25T01:29:20;0.80;;;0.80;;
16977;SDS011;8605;52.548;4.918;2023-04-25T01:34:43;0.80;;;0.80;;
16977;SDS011;8605;52.548;4.918;2023-04-25T01:39:47;0.80;;;0.80;;
16977;SDS011;8605;52.548;4.918;2023-04-25T01:44:51;0.53;;;0.53;;
16977;SDS011;8605;52.548;4.918;2023-04-25T01:49:54;7.30;;;2.60;;
16977;SDS011;8605;52.548;4.918;2023-04-25T01:54:59;0.52;;;0.52;;
16977;SDS011;8605;52.548;4.918;2023-04-25T02:00:21;0.30;;;0.30;;
16977;SDS011;8605;52.548;4.918;2023-04-25T02:05:24;0.30;;;0.30;;
16977;SDS011;8605;52.548;4.918;2023-04-25T02:10:28;0.70;;;0.70;;
16977;SDS011;8605;52.548;4.918;2023-04-25T02:15:57;1.70;;;0.90;;
16977;SDS011;8605;52.548;4.918;2023-04-25T02:21:00;0.55;;;0.55;;
16977;SDS011;8605;52.548;4.918;2023-04-25T02:26:05;0.40;;;0.40;;
16977;SDS011;8605;52.548;4.918;2023-04-25T02:31:09;0.35;;;0.35;;
16977;SDS011;8605;52.548;4.918;2023-04-25T02:36:12;1.20;;;1.10;;
16977;SDS011;8605;52.548;4.918;2023-04-25T02:41:17;2.93;;;1.13;;
16977;SDS011;8605;52.548;4.918;2023-04-25T02:46:22;0.63;;;0.63;;
16977;SDS011;8605;52.548;4.918;2023-04-25T02:51:39;1.03;;;1.00;;
16977;SDS011;8605;52.548;4.918;2023-04-25T02:56:44;12.60;;;0.63;;
16977;SDS011;8605;52.548;4.918;2023-04-25T03:01:52;0.90;;;0.90;;
16977;SDS011;8605;52.548;4.918;2023-04-25T03:06:55;0.40;;;0.40;;
16977;SDS011;8605;52.548;4.918;2023-04-25T03:12:01;1.00;;;1.00;;
16977;SDS011;8605;52.548;4.918;2023-04-25T03:17:12;0.30;;;0.30;;
16977;SDS011;8605;52.548;4.918;2023-04-25T03:22:15;2.25;;;1.75;;
16977;SDS011;8605;52.548;4.918;2023-04-25T03:27:19;1.80;;;0.50;;
16977;SDS011;8605;52.548;4.918;2023-04-25T03:32:22;0.30;;;0.30;;
16977;SDS011;8605;52.548;4.918;2023-04-25T03:37:25;0.50;;;0.50;;
16977;SDS011;8605;52.548;4.918;2023-04-25T03:42:44;5.80;;;1.20;;
16977;SDS011;8605;52.548;4.918;2023-04-25T03:47:47;2.30;;;1.50;;
16977;SDS011;8605;52.548;4.918;2023-04-25T03:52:51;0.50;;;0.47;;
16977;SDS011;8605;52.548;4.918;2023-04-25T03:57:55;0.35;;;0.35;;
16977;SDS011;8605;52.548;4.918;2023-04-25T04:02:59;0.33;;;0.33;;
16977;SDS011;8605;52.548;4.918;2023-04-25T04:08:18;0.30;;;0.30;;
16977;SDS011;8605;52.548;4.918;2023-04-25T04:13:22;0.20;;;0.20;;
16977;SDS011;8605;52.548;4.918;2023-04-25T04:18:25;0.30;;;0.30;;
16977;SDS011;8605;52.548;4.918;2023-04-25T04:23:30;1.60;;;1.20;;
16977;SDS011;8605;52.548;4.918;2023-04-25T04:28:35;3.40;;;1.20;;
16977;SDS011;8605;52.548;4.918;2023-04-25T04:34:01;0.52;;;0.52;;
16977;SDS011;8605;52.548;4.918;2023-04-25T04:39:05;0.30;;;0.30;;
16977;SDS011;8605;52.548;4.918;2023-04-25T04:44:13;0.50;;;0.50;;
16977;SDS011;8605;52.548;4.918;2023-04-25T04:49:36;0.50;;;0.50;;
16977;SDS011;8605;52.548;4.918;2023-04-25T04:55:05;0.40;;;0.40;;
16977;SDS011;8605;52.548;4.918;2023-04-25T05:00:58;0.32;;;0.32;;
16977;SDS011;8605;52.548;4.918;2023-04-25T05:06:26;0.30;;;0.30;;
16977;SDS011;8605;52.548;4.918;2023-04-25T05:11:48;1.88;;;1.20;;
16977;SDS011;8605;52.548;4.918;2023-04-25T05:17:11;1.00;;;0.90;;
16977;SDS011;8605;52.548;4.918;2023-04-25T05:22:36;0.40;;;0.40;;
16977;SDS011;8605;52.548;4.918;2023-04-25T05:27:47;1.23;;;0.70;;
16977;SDS011;8605;52.548;4.918;2023-04-25T05:33:12;2.00;;;1.40;;
16977;SDS011;8605;52.548;4.918;2023-04-25T05:38:15;2.10;;;1.65;;
16977;SDS011;8605;52.548;4.918;2023-04-25T05:43:49;0.40;;;0.40;;
16977;SDS011;8605;52.548;4.918;2023-04-25T05:49:18;0.70;;;0.70;;
16977;SDS011;8605;52.548;4.918;2023-04-25T05:54:51;0.40;;;0.40;;
16977;SDS011;8605;52.548;4.918;2023-04-25T05:59:54;0.40;;;0.35;;
16977;SDS011;8605;52.548;4.918;2023-04-25T06:05:15;0.80;;;0.80;;
16977;SDS011;8605;52.548;4.918;2023-04-25T06:10:20;0.30;;;0.30;;
16977;SDS011;8605;52.548;4.918;2023-04-25T06:15:24;5.10;;;1.05;;
16977;SDS011;8605;52.548;4.918;2023-04-25T06:20:30;1.13;;;1.02;;
16977;SDS011;8605;52.548;4.918;2023-04-25T06:25:55;0.52;;;0.52;;
16977;SDS011;8605;52.548;4.918;2023-04-25T06:30:59;0.50;;;0.50;;
16977;SDS011;8605;52.548;4.918;2023-04-25T06:36:04;0.65;;;0.65;;
16977;SDS011;8605;52.548;4.918;2023-04-25T06:41:08;0.90;;;0.60;;
16977;SDS011;8605;52.548;4.918;2023-04-25T06:46:11;1.70;;;1.50;;
16977;SDS011;8605;52.548;4.918;2023-04-25T06:51:40;0.40;;;0.40;;
16977;SDS011;8605;52.548;4.918;2023-04-25T06:56:43;0.60;;;0.60;;
16977;SDS011;8605;52.548;4.918;2023-04-25T07:01:48;1.00;;;1.00;;
16977;SDS011;8605;52.548;4.918;2023-04-25T07:06:56;0.32;;;0.32;;
16977;SDS011;8605;52.548;4.918;2023-04-25T07:12:22;0.40;;;0.40;;
16977;SDS011;8605;52.548;4.918;2023-04-25T07:17:38;5.47;;;1.52;;
16977;SDS011;8605;52.548;4.918;2023-04-25T07:22:42;0.50;;;0.50;;
16977;SDS011;8605;52.548;4.918;2023-04-25T07:27:45;1.80;;;1.30;;
16977;SDS011;8605;52.548;4.918;2023-04-25T07:32:51;0.45;;;0.45;;
16977;SDS011;8605;52.548;4.918;2023-04-25T07:37:56;0.35;;;0.35;;
16977;SDS011;8605;52.548;4.918;2023-04-25T07:43:13;0.60;;;0.60;;
16977;SDS011;8605;52.548;4.918;2023-04-25T07:48:28;0.60;;;0.60;;
16977;SDS011;8605;52.548;4.918;2023-04-25T07:53:32;6.60;;;0.60;;
16977;SDS011;8605;52.548;4.918;2023-04-25T07:58:40;0.80;;;0.80;;
16977;SDS011;8605;52.548;4.918;2023-04-25T08:03:46;2.20;;;1.05;;
16977;SDS011;8605;52.548;4.918;2023-04-25T08:08:57;1.35;;;0.75;;
16977;SDS011;8605;52.548;4.918;2023-04-25T08:14:07;0.43;;;0.43;;
16977;SDS011;8605;52.548;4.918;2023-04-25T08:19:12;0.20;;;0.20;;
16977;SDS011;8605;52.548;4.918;2023-04-25T08:24:16;0.40;;;0.40;;
16977;SDS011;8605;52.548;4.918;2023-04-25T08:29:20;0.32;;;0.32;;
16977;SDS011;8605;52.548;4.918;2023-04-25T08:34:25;0.20;;;0.20;;
16977;SDS011;8605;52.548;4.918;2023-04-25T08:39:30;0.30;;;0.30;;
16977;SDS011;8605;52.548;4.918;2023-04-25T08:44:59;0.40;;;0.40;;
16977;SDS011;8605;52.548;4.918;2023-04-25T08:50:11;0.20;;;0.20;;
16977;SDS011;8605;52.548;4.918;2023-04-25T08:55:16;8.40;;;0.93;;
16977;SDS011;8605;52.548;4.918;2023-04-25T09:00:19;0.40;;;0.40;;
16977;SDS011;8605;52.548;4.918;2023-04-25T09:05:22;0.70;;;0.70;;
16977;SDS011;8605;52.548;4.918;2023-04-25T09:10:28;0.20;;;0.20;;
16977;SDS011;8605;52.548;4.918;2023-04-25T09:15:32;0.40;;;0.40;;
16977;SDS011;8605;52.548;4.918;2023-04-25T09:20:45;1.90;;;1.30;;
16977;SDS011;8605;52.548;4.918;2023-04-25T09:26:03;2.85;;;1.65;;
16977;SDS011;8605;52.548;4.918;2023-04-25T09:31:09;0.30;;;0.30;;
16977;SDS011;8605;52.548;4.918;2023-04-25T09:36:20;0.20;;;0.20;;
16977;SDS011;8605;52.548;4.918;2023-04-25T09:41:48;1.33;;;1.23;;
16977;SDS011;8605;52.548;4.918;2023-04-25T09:46:56;1.95;;;0.30;;
16977;SDS011;8605;52.548;4.918;2023-04-25T09:52:23;7.10;;;0.30;;
16977;SDS011;8605;52.548;4.918;2023-04-25T09:57:37;0.40;;;0.40;;
16977;SDS011;8605;52.548;4.918;2023-04-25T10:02:42;0.80;;;0.80;;
16977;SDS011;8605;52.548;4.918;2023-04-25T10:08:08;0.50;;;0.50;;
16977;SDS011;8605;52.548;4.918;2023-04-25T10:13:13;0.80;;;0.80;;
16977;SDS011;8605;52.548;4.918;2023-04-25T10:18:32;1.30;;;1.20;;
16977;SDS011;8605;52.548;4.918;2023-04-25T10:23:35;0.30;;;0.30;;
16977;SDS011;8605;52.548;4.918;2023-04-25T10:28:56;0.50;;;0.50;;
16977;SDS011;8605;52.548;4.918;2023-04-25T10:34:00;0.20;;;0.20;;
16977;SDS011;8605;52.548;4.918;2023-04-25T10:39:03;0.20;;;0.20;;
16977;SDS011;8605;52.548;4.918;2023-04-25T10:44:10;1.02;;;0.57;;
16977;SDS011;8605;52.548;4.918;2023-04-25T10:49:28;0.90;;;0.90;;
16977;SDS011;8605;52.548;4.918;2023-04-25T10:54:32;0.10;;;0.10;;
16977;SDS011;8605;52.548;4.918;2023-04-25T10:59:36;0.10;;;0.10;;
16977;SDS011;8605;52.548;4.918;2023-04-25T11:04:42;0.90;;;0.80;;
16977;SDS011;8605;52.548;4.918;2023-04-25T11:09:45;1.85;;;0.60;;
16977;SDS011;8605;52.548;4.918;2023-04-25T11:14:49;0.20;;;0.20;;
16977;SDS011;8605;52.548;4.918;2023-04-25T11:19:53;0.30;;;0.30;;
16977;SDS011;8605;52.548;4.918;2023-04-25T11:24:57;0.38;;;0.38;;
16977;SDS011;8605;52.548;4.918;2023-04-25T11:30:10;0.20;;;0.20;;
16977;SDS011;8605;52.548;4.918;2023-04-25T11:35:18;0.30;;;0.30;;
16977;SDS011;8605;52.548;4.918;2023-04-25T11:40:21;0.30;;;0.28;;
16977;SDS011;8605;52.548;4.918;2023-04-25T11:45:26;0.50;;;0.50;;
16977;SDS011;8605;52.548;4.918;2023-04-25T11:50:29;0.10;;;0.10;;
16977;SDS011;8605;52.548;4.918;2023-04-25T11:55:33;0.20;;;0.20;;
16977;SDS011;8605;52.548;4.918;2023-04-25T12:00:55;3.33;;;0.70;;
16977;SDS011;8605;52.548;4.918;2023-04-25T12:06:02;0.20;;;0.20;;
16977;SDS011;8605;52.548;4.918;2023-04-25T12:11:06;0.50;;;0.50;;
16977;SDS011;8605;52.548;4.918;2023-04-25T12:16:24;0.20;;;0.20;;
16977;SDS011;8605;52.548;4.918;2023-04-25T12:21:28;1.10;;;1.00;;
16977;SDS011;8605;52.548;4.918;2023-04-25T12:26:45;2.80;;;0.50;;
16977;SDS011;8605;52.548;4.918;2023-04-25T12:31:50;1.00;;;1.00;;
16977;SDS011;8605;52.548;4.918;2023-04-25T12:36:54;2.50;;;0.70;;
16977;SDS011;8605;52.548;4.918;2023-04-25T12:41:57;0.50;;;0.50;;
16977;SDS011;8605;52.548;4.918;2023-04-25T12:47:02;0.20;;;0.20;;
16977;SDS011;8605;52.548;4.918;2023-04-25T12:52:06;0.40;;;0.28;;
16977;SDS011;8605;52.548;4.918;2023-04-25T12:57:09;0.70;;;0.70;;
16977;SDS011;8605;52.548;4.918;2023-04-25T13:02:14;0.60;;;0.60;;
16977;SDS011;8605;52.548;4.918;2023-04-25T13:07:17;0.30;;;0.30;;
16977;SDS011;8605;52.548;4.918;2023-04-25T13:12:22;0.70;;;0.70;;
16977;SDS011;8605;52.548;4.918;2023-04-25T13:17:41;0.10;;;0.10;;
16977;SDS011;8605;52.548;4.918;2023-04-25T13:22:44;0.57;;;0.28;;
16977;SDS011;8605;52.548;4.918;2023-04-25T13:27:47;0.60;;;0.60;;
16977;SDS011;8605;52.548;4.918;2023-04-25T13:32:52;0.20;;;0.20;;
16977;SDS011;8605;52.548;4.918;2023-04-25T13:37:57;0.38;;;0.38;;
16977;SDS011;8605;52.548;4.918;2023-04-25T13:43:18;0.20;;;0.20;;
16977;SDS011;8605;52.548;4.918;2023-04-25T13:48:23;0.90;;;0.90;;
16977;SDS011;8605;52.548;4.918;2023-04-25T13:53:32;0.32;;;0.32;;
16977;SDS011;8605;52.548;4.918;2023-04-25T13:58:35;0.20;;;0.20;;
16977;SDS011;8605;52.548;4.918;2023-04-25T14:03:41;0.90;;;0.90;;
16977;SDS011;8605;52.548;4.918;2023-04-25T14:08:51;0.20;;;0.20;;
16977;SDS011;8605;52.548;4.918;2023-04-25T14:13:56;8.60;;;1.10;;
16977;SDS011;8605;52.548;4.918;2023-04-25T14:19:06;1.57;;;0.90;;
16977;SDS011;8605;52.548;4.918;2023-04-25T14:24:09;0.20;;;0.20;;
16977;SDS011;8605;52.548;4.918;2023-04-25T14:29:12;0.38;;;0.38;;
16977;SDS011;8605;52.548;4.918;2023-04-25T14:34:26;0.40;;;0.40;;
16977;SDS011;8605;52.548;4.918;2023-04-25T14:39:29;0.60;;;0.60;;
16977;SDS011;8605;52.548;4.918;2023-04-25T14:44:32;0.63;;;0.55;;
16977;SDS011;8605;52.548;4.918;2023-04-25T14:49:41;0.52;;;0.52;;
16977;SDS011;8605;52.548;4.918;2023-04-25T14:54:45;0.50;;;0.50;;
16977;SDS011;8605;52.548;4.918;2023-04-25T15:00:00;3.13;;;0.73;;
16977;SDS011;8605;52.548;4.918;2023-04-25T15:05:11;0.90;;;0.90;;
16977;SDS011;8605;52.548;4.918;2023-04-25T15:10:16;0.30;;;0.30;;
16977;SDS011;8605;52.548;4.918;2023-04-25T15:15:19;0.43;;;0.43;;
16977;SDS011;8605;52.548;4.918;2023-04-25T15:20:41;0.70;;;0.70;;
16977;SDS011;8605;52.548;4.918;2023-04-25T15:25:46;0.70;;;0.70;;
16977;SDS011;8605;52.548;4.918;2023-04-25T15:30:49;0.40;;;0.40;;
16977;SDS011;8605;52.548;4.918;2023-04-25T15:35:55;0.30;;;0.30;;
16977;SDS011;8605;52.548;4.918;2023-04-25T15:40:59;1.33;;;0.53;;
16977;SDS011;8605;52.548;4.918;2023-04-25T15:46:05;0.50;;;0.50;;
16977;SDS011;8605;52.548;4.918;2023-04-25T15:51:13;0.23;;;0.23;;
16977;SDS011;8605;52.548;4.918;2023-04-25T15:56:16;4.80;;;0.70;;
16977;SDS011;8605;52.548;4.918;2023-04-25T16:01:19;0.40;;;0.40;;
16977;SDS011;8605;52.548;4.918;2023-04-25T16:06:26;0.70;;;0.40;;
16977;SDS011;8605;52.548;4.918;2023-04-25T16:11:34;1.20;;;1.10;;
16977;SDS011;8605;52.548;4.918;2023-04-25T16:16:46;0.70;;;0.70;;
16977;SDS011;8605;52.548;4.918;2023-04-25T16:21:50;0.60;;;0.60;;
16977;SDS011;8605;52.548;4.918;2023-04-25T16:26:54;2.78;;;1.15;;
16977;SDS011;8605;52.548;4.918;2023-04-25T16:31:58;0.40;;;0.40;;
16977;SDS011;8605;52.548;4.918;2023-04-25T16:37:04;0.50;;;0.50;;
16977;SDS011;8605;52.548;4.918;2023-04-25T16:42:22;0.75;;;0.75;;
16977;SDS011;8605;52.548;4.918;2023-04-25T16:47:26;0.80;;;0.80;;
16977;SDS011;8605;52.548;4.918;2023-04-25T16:52:34;0.70;;;0.70;;
16977;SDS011;8605;52.548;4.918;2023-04-25T16:57:37;0.90;;;0.90;;
16977;SDS011;8605;52.548;4.918;2023-04-25T17:02:41;0.60;;;0.60;;
16977;SDS011;8605;52.548;4.918;2023-04-25T17:07:58;0.20;;;0.20;;
16977;SDS011;8605;52.548;4.918;2023-04-25T17:13:01;0.10;;;0.10;;
16977;SDS011;8605;52.548;4.918;2023-04-25T17:18:06;7.77;;;1.47;;
16977;SDS011;8605;52.548;4.918;2023-04-25T17:23:10;0.25;;;0.25;;
16977;SDS011;8605;52.548;4.918;2023-04-25T17:28:14;0.50;;;0.50;;
16977;SDS011;8605;52.548;4.918;2023-04-25T17:33:30;0.70;;;0.70;;
16977;SDS011;8605;52.548;4.918;2023-04-25T17:38:34;0.70;;;0.70;;
16977;SDS011;8605;52.548;4.918;2023-04-25T17:43:39;0.22;;;0.22;;
16977;SDS011;8605;52.548;4.918;2023-04-25T17:48:42;3.25;;;1.55;;
16977;SDS011;8605;52.548;4.918;2023-04-25T17:53:46;0.50;;;0.50;;
16977;SDS011;8605;52.548;4.918;2023-04-25T17:59:05;0.40;;;0.40;;
16977;SDS011;8605;52.548;4.918;2023-04-25T18:04:08;2.50;;;0.67;;
16977;SDS011;8605;52.548;4.918;2023-04-25T18:09:12;0.20;;;0.20;;
16977;SDS011;8605;52.548;4.918;2023-04-25T18:14:18;0.47;;;0.47;;
16977;SDS011;8605;52.548;4.918;2023-04-25T18:19:22;0.55;;;0.55;;
16977;SDS011;8605;52.548;4.918;2023-04-25T18:24:43;0.30;;;0.30;;
16977;SDS011;8605;52.548;4.918;2023-04-25T18:29:46;0.77;;;0.77;;
16977;SDS011;8605;52.548;4.918;2023-04-25T18:34:49;0.68;;;0.60;;
16977;SDS011;8605;52.548;4.918;2023-04-25T18:39:54;0.53;;;0.53;;
16977;SDS011;8605;52.548;4.918;2023-04-25T18:44:58;6.20;;;0.80;;
16977;SDS011;8605;52.548;4.918;2023-04-25T18:50:20;0.47;;;0.47;;
16977;SDS011;8605;52.548;4.918;2023-04-25T18:55:28;7.93;;;1.23;;
16977;SDS011;8605;52.548;4.918;2023-04-25T19:00:30;0.40;;;0.40;;
16977;SDS011;8605;52.548;4.918;2023-04-25T19:05:34;0.40;;;0.40;;
16977;SDS011;8605;52.548;4.918;2023-04-25T19:10:46;0.50;;;0.50;;
16977;SDS011;8605;52.548;4.918;2023-04-25T19:15:51;21.50;;;10.50;;
16977;SDS011;8605;52.548;4.918;2023-04-25T19:20:54;20.10;;;10.67;;
16977;SDS011;8605;52.548;4.918;2023-04-25T19:26:17;18.58;;;11.05;;
16977;SDS011;8605;52.548;4.918;2023-04-25T19:31:21;20.10;;;10.98;;
16977;SDS011;8605;52.548;4.918;2023-04-25T19:36:24;22.02;;;12.50;;
16977;SDS011;8605;52.548;4.918;2023-04-25T19:41:29;24.30;;;11.93;;
16977;SDS011;8605;52.548;4.918;2023-04-25T19:46:34;26.60;;;12.57;;
16977;SDS011;8605;52.548;4.918;2023-04-25T19:51:38;28.63;;;13.73;;
16977;SDS011;8605;52.548;4.918;2023-04-25T19:56:42;25.98;;;12.77;;
16977;SDS011;8605;52.548;4.918;2023-04-25T20:02:01;27.08;;;14.02;;
16977;SDS011;8605;52.548;4.918;2023-04-25T20:07:05;25.27;;;13.20;;
16977;SDS011;8605;52.548;4.918;2023-04-25T20:12:09;29.48;;;14.75;;
16977;SDS011;8605;52.548;4.918;2023-04-25T20:17:13;31.85;;;15.27;;
16977;SDS011;8605;52.548;4.918;2023-04-25T20:22:16;26.30;;;15.05;;
16977;SDS011;8605;52.548;4.918;2023-04-25T20:27:20;35.40;;;16.20;;
16977;SDS011;8605;52.548;4.918;2023-04-25T20:32:37;39.30;;;20.73;;
16977;SDS011;8605;52.548;4.918;2023-04-25T20:37:40;33.83;;;17.63;;
16977;SDS011;8605;52.548;4.918;2023-04-25T20:42:51;34.30;;;17.57;;
16977;SDS011;8605;52.548;4.918;2023-04-25T20:47:54;32.60;;;19.33;;
16977;SDS011;8605;52.548;4.918;2023-04-25T20:52:58;38.38;;;17.30;;
16977;SDS011;8605;52.548;4.918;2023-04-25T20:58:14;23.55;;;12.98;;
16977;SDS011;8605;52.548;4.918;2023-04-25T21:03:17;20.93;;;10.73;;
16977;SDS011;8605;52.548;4.918;2023-04-25T21:08:20;25.40;;;11.85;;
16977;SDS011;8605;52.548;4.918;2023-04-25T21:13:24;22.40;;;10.63;;
16977;SDS011;8605;52.548;4.918;2023-04-25T21:18:29;15.65;;;8.70;;
16977;SDS011;8605;52.548;4.918;2023-04-25T21:23:46;16.95;;;7.15;;
16977;SDS011;8605;52.548;4.918;2023-04-25T21:28:51;15.48;;;6.38;;
16977;SDS011;8605;52.548;4.918;2023-04-25T21:33:54;16.33;;;7.20;;
16977;SDS011;8605;52.548;4.918;2023-04-25T21:38:57;14.17;;;6.90;;
16977;SDS011;8605;52.548;4.918;2023-04-25T21:44:02;12.40;;;6.32;;
16977;SDS011;8605;52.548;4.918;2023-04-25T21:49:22;11.85;;;6.93;;
16977;SDS011;8605;52.548;4.918;2023-04-25T21:54:29;16.83;;;7.25;;
16977;SDS011;8605;52.548;4.918;2023-04-25T21:59:33;16.50;;;7.75;;
16977;SDS011;8605;52.548;4.918;2023-04-25T22:04:37;22.55;;;7.43;;
16977;SDS011;8605;52.548;4.918;2023-04-25T22:09:43;17.43;;;7.23;;
16977;SDS011;8605;52.548;4.918;2023-04-25T22:15:04;16.47;;;8.30;;
16977;SDS011;8605;52.548;4.918;2023-04-25T22:20:09;18.05;;;8.35;;
16977;SDS011;8605;52.548;4.918;2023-04-25T22:25:14;22.27;;;10.10;;
16977;SDS011;8605;52.548;4.918;2023-04-25T22:30:18;17.75;;;9.00;;
16977;SDS011;8605;52.548;4.918;2023-04-25T22:35:22;21.25;;;9.88;;
16977;SDS011;8605;52.548;4.918;2023-04-25T22:40:42;26.70;;;9.18;;
16977;SDS011;8605;52.548;4.918;2023-04-25T22:45:49;23.27;;;9.52;;
16977;SDS011;8605;52.548;4.918;2023-04-25T22:51:16;28.13;;;10.93;;
16977;SDS011;8605;52.548;4.918;2023-04-25T22:56:18;21.17;;;9.73;;
16977;SDS011;8605;52.548;4.918;2023-04-25T23:01:23;26.42;;;10.73;;
16977;SDS011;8605;52.548;4.918;2023-04-25T23:06:26;27.85;;;10.43;;
16977;SDS011;8605;52.548;4.918;2023-04-25T23:11:29;30.95;;;11.38;;
16977;SDS011;8605;52.548;4.918;2023-04-25T23:16:33;26.10;;;10.47;;
16977;SDS011;8605;52.548;4.918;2023-04-25T23:21:36;26.58;;;11.15;;
16977;SDS011;8605;52.548;4.918;2023-04-25T23:26:40;29.92;;;12.40;;
16977;SDS011;8605;52.548;4.918;2023-04-25T23:31:45;25.70;;;11.73;;
16977;SDS011;8605;52.548;4.918;2023-04-25T23:36:48;25.15;;;10.88;;
16977;SDS011;8605;52.548;4.918;2023-04-25T23:41:51;26.27;;;10.83;;
16977;SDS011;8605;52.548;4.918;2023-04-25T23:46:55;27.52;;;11.25;;
16977;SDS011;8605;52.548;4.918;2023-04-25T23:51:59;24.67;;;11.20;;
16977;SDS011;8605;52.548;4.918;2023-04-25T23:57:19;27.23;;;11.03;;
